sensor_id;sensor_type;location;lat;lon;timestamp;temperature;humidity
8565;DHT22;4320;51.498;6.556;2022-10-16T00:01:14;15.20;1.00
8565;DHT22;4320;51.498;6.556;2022-10-16T00:03:41;15.20;1.00
8565;DHT22;4320;51.498;6.556;2022-10-16T00:06:09;15.20;1.00
8565;DHT22;4320;51.498;6.556;2022-10-16T00:08:35;15.20;1.00
8565;DHT22;4320;51.498;6.556;2022-10-16T00:11:06;15.20;1.00
8565;DHT22;4320;51.498;6.556;2022-10-16T00:13:34;15.20;1.00
8565;DHT22;4320;51.498;6.556;2022-10-16T00:16:01;15.20;1.00
8565;DHT22;4320;51.498;6.556;2022-10-16T00:18:27;15.10;1.00
8565;DHT22;4320;51.498;6.556;2022-10-16T00:20:54;15.10;1.00
8565;DHT22;4320;51.498;6.556;2022-10-16T00:23:19;15.10;1.00
8565;DHT22;4320;51.498;6.556;2022-10-16T00:25:53;15.10;1.00
8565;DHT22;4320;51.498;6.556;2022-10-16T00:28:19;15.10;1.00
8565;DHT22;4320;51.498;6.556;2022-10-16T00:30:45;15.10;1.00
8565;DHT22;4320;51.498;6.556;2022-10-16T00:33:10;15.10;1.00
8565;DHT22;4320;51.498;6.556;2022-10-16T00:35:36;15.10;1.00
8565;DHT22;4320;51.498;6.556;2022-10-16T00:38:02;15.10;1.00
8565;DHT22;4320;51.498;6.556;2022-10-16T00:40:27;15.10;1.00
8565;DHT22;4320;51.498;6.556;2022-10-16T00:42:53;15.10;1.00
8565;DHT22;4320;51.498;6.556;2022-10-16T00:45:19;15.10;1.00
8565;DHT22;4320;51.498;6.556;2022-10-16T00:47:45;15.10;1.00
8565;DHT22;4320;51.498;6.556;2022-10-16T00:50:29;15.10;1.00
8565;DHT22;4320;51.498;6.556;2022-10-16T00:52:56;15.10;1.00
8565;DHT22;4320;51.498;6.556;2022-10-16T00:55:22;15.10;1.00
8565;DHT22;4320;51.498;6.556;2022-10-16T00:57:49;15.10;1.00
8565;DHT22;4320;51.498;6.556;2022-10-16T01:00:20;15.10;1.00
8565;DHT22;4320;51.498;6.556;2022-10-16T01:02:53;15.10;1.00
8565;DHT22;4320;51.498;6.556;2022-10-16T01:05:20;15.10;1.00
8565;DHT22;4320;51.498;6.556;2022-10-16T01:10:48;15.10;1.00
8565;DHT22;4320;51.498;6.556;2022-10-16T01:15:59;15.10;1.00
8565;DHT22;4320;51.498;6.556;2022-10-16T01:18:50;15.00;1.00
8565;DHT22;4320;51.498;6.556;2022-10-16T01:21:41;15.00;1.00
8565;DHT22;4320;51.498;6.556;2022-10-16T01:24:10;15.00;1.00
8565;DHT22;4320;51.498;6.556;2022-10-16T01:29:56;15.00;1.00
8565;DHT22;4320;51.498;6.556;2022-10-16T01:32:42;15.00;1.00
8565;DHT22;4320;51.498;6.556;2022-10-16T01:35:26;15.00;1.00
8565;DHT22;4320;51.498;6.556;2022-10-16T01:38:07;15.00;1.00
8565;DHT22;4320;51.498;6.556;2022-10-16T01:40:37;15.00;1.00
8565;DHT22;4320;51.498;6.556;2022-10-16T01:43:20;15.10;1.00
8565;DHT22;4320;51.498;6.556;2022-10-16T01:45:48;15.10;1.00
8565;DHT22;4320;51.498;6.556;2022-10-16T01:48:16;15.10;1.00
8565;DHT22;4320;51.498;6.556;2022-10-16T01:50:44;15.10;1.00
8565;DHT22;4320;51.498;6.556;2022-10-16T01:53:15;15.10;1.00
8565;DHT22;4320;51.498;6.556;2022-10-16T01:55:46;15.00;1.00
8565;DHT22;4320;51.498;6.556;2022-10-16T01:58:14;15.00;1.00
8565;DHT22;4320;51.498;6.556;2022-10-16T02:00:42;15.00;1.00
8565;DHT22;4320;51.498;6.556;2022-10-16T02:03:09;14.90;1.00
8565;DHT22;4320;51.498;6.556;2022-10-16T02:05:50;15.00;1.00
8565;DHT22;4320;51.498;6.556;2022-10-16T02:08:17;14.90;1.00
8565;DHT22;4320;51.498;6.556;2022-10-16T02:10:43;15.00;1.00
8565;DHT22;4320;51.498;6.556;2022-10-16T02:13:26;14.90;1.00
8565;DHT22;4320;51.498;6.556;2022-10-16T02:15:52;14.90;1.00
8565;DHT22;4320;51.498;6.556;2022-10-16T02:18:18;14.90;1.00
8565;DHT22;4320;51.498;6.556;2022-10-16T02:20:57;14.90;1.00
8565;DHT22;4320;51.498;6.556;2022-10-16T02:23:50;14.90;1.00
8565;DHT22;4320;51.498;6.556;2022-10-16T02:26:17;14.90;1.00
8565;DHT22;4320;51.498;6.556;2022-10-16T02:28:52;14.90;1.00
8565;DHT22;4320;51.498;6.556;2022-10-16T02:31:27;14.90;1.00
8565;DHT22;4320;51.498;6.556;2022-10-16T02:33:57;14.90;1.00
8565;DHT22;4320;51.498;6.556;2022-10-16T02:36:25;14.90;1.00
8565;DHT22;4320;51.498;6.556;2022-10-16T02:38:51;14.90;1.00
8565;DHT22;4320;51.498;6.556;2022-10-16T02:41:17;14.80;1.00
8565;DHT22;4320;51.498;6.556;2022-10-16T02:43:43;14.80;1.00
8565;DHT22;4320;51.498;6.556;2022-10-16T02:46:09;14.80;1.00
8565;DHT22;4320;51.498;6.556;2022-10-16T02:48:34;14.80;1.00
8565;DHT22;4320;51.498;6.556;2022-10-16T02:51:01;14.80;1.00
8565;DHT22;4320;51.498;6.556;2022-10-16T02:53:26;14.80;1.00
8565;DHT22;4320;51.498;6.556;2022-10-16T02:55:52;14.80;1.00
8565;DHT22;4320;51.498;6.556;2022-10-16T02:58:18;14.80;1.00
8565;DHT22;4320;51.498;6.556;2022-10-16T03:00:43;14.80;1.00
8565;DHT22;4320;51.498;6.556;2022-10-16T03:03:09;14.80;1.00
8565;DHT22;4320;51.498;6.556;2022-10-16T03:05:34;14.80;1.00
8565;DHT22;4320;51.498;6.556;2022-10-16T03:08:00;14.80;1.00
8565;DHT22;4320;51.498;6.556;2022-10-16T03:10:26;14.80;1.00
8565;DHT22;4320;51.498;6.556;2022-10-16T03:12:52;14.80;1.00
8565;DHT22;4320;51.498;6.556;2022-10-16T03:15:18;14.80;1.00
8565;DHT22;4320;51.498;6.556;2022-10-16T03:17:43;14.80;1.00
8565;DHT22;4320;51.498;6.556;2022-10-16T03:20:09;14.80;1.00
8565;DHT22;4320;51.498;6.556;2022-10-16T03:22:35;14.80;1.00
8565;DHT22;4320;51.498;6.556;2022-10-16T03:25:00;14.80;1.00
8565;DHT22;4320;51.498;6.556;2022-10-16T03:27:26;14.80;1.00
8565;DHT22;4320;51.498;6.556;2022-10-16T03:29:52;14.80;1.00
8565;DHT22;4320;51.498;6.556;2022-10-16T03:32:17;14.80;1.00
8565;DHT22;4320;51.498;6.556;2022-10-16T03:34:43;14.80;1.00
8565;DHT22;4320;51.498;6.556;2022-10-16T03:37:09;14.80;1.00
8565;DHT22;4320;51.498;6.556;2022-10-16T03:39:35;14.90;1.00
8565;DHT22;4320;51.498;6.556;2022-10-16T03:42:01;14.80;1.00
8565;DHT22;4320;51.498;6.556;2022-10-16T03:44:26;14.80;1.00
8565;DHT22;4320;51.498;6.556;2022-10-16T03:46:52;14.90;1.00
8565;DHT22;4320;51.498;6.556;2022-10-16T03:49:18;14.80;1.00
8565;DHT22;4320;51.498;6.556;2022-10-16T03:51:43;14.80;1.00
8565;DHT22;4320;51.498;6.556;2022-10-16T03:54:10;14.80;1.00
8565;DHT22;4320;51.498;6.556;2022-10-16T03:56:35;14.80;1.00
8565;DHT22;4320;51.498;6.556;2022-10-16T03:59:01;14.80;1.00
8565;DHT22;4320;51.498;6.556;2022-10-16T04:01:27;14.80;1.00
8565;DHT22;4320;51.498;6.556;2022-10-16T04:03:52;14.90;1.00
8565;DHT22;4320;51.498;6.556;2022-10-16T04:06:18;14.80;1.00
8565;DHT22;4320;51.498;6.556;2022-10-16T04:08:44;14.80;1.00
8565;DHT22;4320;51.498;6.556;2022-10-16T04:11:10;14.80;1.00
8565;DHT22;4320;51.498;6.556;2022-10-16T04:13:36;14.80;1.00
8565;DHT22;4320;51.498;6.556;2022-10-16T04:16:01;14.80;1.00
8565;DHT22;4320;51.498;6.556;2022-10-16T04:18:27;14.80;1.00
8565;DHT22;4320;51.498;6.556;2022-10-16T04:20:53;14.80;1.00
8565;DHT22;4320;51.498;6.556;2022-10-16T04:23:19;14.80;1.00
8565;DHT22;4320;51.498;6.556;2022-10-16T04:25:45;14.80;1.00
8565;DHT22;4320;51.498;6.556;2022-10-16T04:28:10;14.90;1.00
8565;DHT22;4320;51.498;6.556;2022-10-16T04:30:38;14.90;1.00
8565;DHT22;4320;51.498;6.556;2022-10-16T04:33:04;14.90;1.00
8565;DHT22;4320;51.498;6.556;2022-10-16T04:35:29;14.80;1.00
8565;DHT22;4320;51.498;6.556;2022-10-16T04:37:57;14.90;1.00
8565;DHT22;4320;51.498;6.556;2022-10-16T04:40:23;14.80;1.00
8565;DHT22;4320;51.498;6.556;2022-10-16T04:42:49;14.80;1.00
8565;DHT22;4320;51.498;6.556;2022-10-16T04:45:14;14.80;1.00
8565;DHT22;4320;51.498;6.556;2022-10-16T04:47:40;14.70;1.00
8565;DHT22;4320;51.498;6.556;2022-10-16T04:50:06;14.60;1.00
8565;DHT22;4320;51.498;6.556;2022-10-16T04:52:32;14.60;1.00
8565;DHT22;4320;51.498;6.556;2022-10-16T04:54:58;14.60;1.00
8565;DHT22;4320;51.498;6.556;2022-10-16T04:57:27;14.60;1.00
8565;DHT22;4320;51.498;6.556;2022-10-16T04:59:52;14.70;1.00
8565;DHT22;4320;51.498;6.556;2022-10-16T05:02:18;14.70;1.00
8565;DHT22;4320;51.498;6.556;2022-10-16T05:04:44;14.70;1.00
8565;DHT22;4320;51.498;6.556;2022-10-16T05:07:09;14.70;1.00
8565;DHT22;4320;51.498;6.556;2022-10-16T05:09:35;14.70;1.00
8565;DHT22;4320;51.498;6.556;2022-10-16T05:12:00;14.70;1.00
8565;DHT22;4320;51.498;6.556;2022-10-16T05:14:26;14.70;1.00
8565;DHT22;4320;51.498;6.556;2022-10-16T05:16:52;14.70;1.00
8565;DHT22;4320;51.498;6.556;2022-10-16T05:19:18;14.70;1.00
8565;DHT22;4320;51.498;6.556;2022-10-16T05:21:43;14.70;1.00
8565;DHT22;4320;51.498;6.556;2022-10-16T05:24:09;14.70;1.00
8565;DHT22;4320;51.498;6.556;2022-10-16T05:26:35;14.70;1.00
8565;DHT22;4320;51.498;6.556;2022-10-16T05:29:00;14.70;1.00
8565;DHT22;4320;51.498;6.556;2022-10-16T05:31:26;14.70;1.00
8565;DHT22;4320;51.498;6.556;2022-10-16T05:33:51;14.70;1.00
8565;DHT22;4320;51.498;6.556;2022-10-16T05:36:17;14.70;1.00
8565;DHT22;4320;51.498;6.556;2022-10-16T05:38:43;14.70;1.00
8565;DHT22;4320;51.498;6.556;2022-10-16T05:41:09;14.70;1.00
8565;DHT22;4320;51.498;6.556;2022-10-16T05:43:34;14.70;1.00
8565;DHT22;4320;51.498;6.556;2022-10-16T05:46:03;14.70;1.00
8565;DHT22;4320;51.498;6.556;2022-10-16T05:48:30;14.70;1.00
8565;DHT22;4320;51.498;6.556;2022-10-16T05:51:00;14.70;1.00
8565;DHT22;4320;51.498;6.556;2022-10-16T05:53:31;14.70;1.00
8565;DHT22;4320;51.498;6.556;2022-10-16T05:55:56;14.70;1.00
8565;DHT22;4320;51.498;6.556;2022-10-16T05:58:23;14.60;1.00
8565;DHT22;4320;51.498;6.556;2022-10-16T06:00:57;14.60;1.00
8565;DHT22;4320;51.498;6.556;2022-10-16T06:03:23;14.60;1.00
8565;DHT22;4320;51.498;6.556;2022-10-16T06:05:49;14.60;1.00
8565;DHT22;4320;51.498;6.556;2022-10-16T06:08:15;14.60;1.00
8565;DHT22;4320;51.498;6.556;2022-10-16T06:10:41;14.60;1.00
8565;DHT22;4320;51.498;6.556;2022-10-16T06:13:07;14.60;1.00
8565;DHT22;4320;51.498;6.556;2022-10-16T06:15:32;14.60;1.00
8565;DHT22;4320;51.498;6.556;2022-10-16T06:17:58;14.60;1.00
8565;DHT22;4320;51.498;6.556;2022-10-16T06:20:24;14.60;1.00
8565;DHT22;4320;51.498;6.556;2022-10-16T06:22:49;14.60;1.00
8565;DHT22;4320;51.498;6.556;2022-10-16T06:25:15;14.60;1.00
8565;DHT22;4320;51.498;6.556;2022-10-16T06:27:40;14.60;1.00
8565;DHT22;4320;51.498;6.556;2022-10-16T06:30:07;14.60;1.00
8565;DHT22;4320;51.498;6.556;2022-10-16T06:32:33;14.60;1.00
8565;DHT22;4320;51.498;6.556;2022-10-16T06:34:58;14.60;1.00
8565;DHT22;4320;51.498;6.556;2022-10-16T06:37:24;14.60;1.00
8565;DHT22;4320;51.498;6.556;2022-10-16T06:39:50;14.60;1.00
8565;DHT22;4320;51.498;6.556;2022-10-16T06:42:19;14.60;1.00
8565;DHT22;4320;51.498;6.556;2022-10-16T06:44:45;14.60;1.00
8565;DHT22;4320;51.498;6.556;2022-10-16T06:47:10;14.60;1.00
8565;DHT22;4320;51.498;6.556;2022-10-16T06:49:36;14.60;1.00
8565;DHT22;4320;51.498;6.556;2022-10-16T06:52:02;14.60;1.00
8565;DHT22;4320;51.498;6.556;2022-10-16T06:54:28;14.60;1.00
8565;DHT22;4320;51.498;6.556;2022-10-16T06:56:54;14.60;1.00
8565;DHT22;4320;51.498;6.556;2022-10-16T06:59:21;14.60;1.00
8565;DHT22;4320;51.498;6.556;2022-10-16T07:01:47;14.60;1.00
8565;DHT22;4320;51.498;6.556;2022-10-16T07:04:12;14.60;1.00
8565;DHT22;4320;51.498;6.556;2022-10-16T07:06:38;14.60;1.00
8565;DHT22;4320;51.498;6.556;2022-10-16T07:09:06;14.60;1.00
8565;DHT22;4320;51.498;6.556;2022-10-16T07:11:33;14.60;1.00
8565;DHT22;4320;51.498;6.556;2022-10-16T07:13:59;14.70;1.00
8565;DHT22;4320;51.498;6.556;2022-10-16T07:16:27;14.70;1.00
8565;DHT22;4320;51.498;6.556;2022-10-16T07:18:54;15.10;1.00
8565;DHT22;4320;51.498;6.556;2022-10-16T07:21:26;15.50;1.00
8565;DHT22;4320;51.498;6.556;2022-10-16T07:23:53;16.00;1.00
8565;DHT22;4320;51.498;6.556;2022-10-16T07:26:19;16.50;1.00
8565;DHT22;4320;51.498;6.556;2022-10-16T07:28:45;17.00;1.00
8565;DHT22;4320;51.498;6.556;2022-10-16T07:31:12;17.50;99.90
8565;DHT22;4320;51.498;6.556;2022-10-16T07:33:42;18.10;99.90
8565;DHT22;4320;51.498;6.556;2022-10-16T07:36:10;18.80;99.90
8565;DHT22;4320;51.498;6.556;2022-10-16T07:38:36;19.40;99.90
8565;DHT22;4320;51.498;6.556;2022-10-16T07:41:06;20.20;99.90
8565;DHT22;4320;51.498;6.556;2022-10-16T07:43:33;20.90;99.90
8565;DHT22;4320;51.498;6.556;2022-10-16T07:45:59;21.50;99.90
8565;DHT22;4320;51.498;6.556;2022-10-16T07:48:27;22.00;99.90
8565;DHT22;4320;51.498;6.556;2022-10-16T07:51:00;22.50;99.90
8565;DHT22;4320;51.498;6.556;2022-10-16T07:53:26;22.90;99.90
8565;DHT22;4320;51.498;6.556;2022-10-16T07:55:54;23.40;99.90
8565;DHT22;4320;51.498;6.556;2022-10-16T07:58:21;23.70;99.90
8565;DHT22;4320;51.498;6.556;2022-10-16T08:00:47;23.60;99.90
8565;DHT22;4320;51.498;6.556;2022-10-16T08:03:13;23.80;99.90
8565;DHT22;4320;51.498;6.556;2022-10-16T08:05:38;23.90;99.90
8565;DHT22;4320;51.498;6.556;2022-10-16T08:08:04;23.60;99.90
8565;DHT22;4320;51.498;6.556;2022-10-16T08:10:30;23.20;99.90
8565;DHT22;4320;51.498;6.556;2022-10-16T08:12:57;22.90;99.90
8565;DHT22;4320;51.498;6.556;2022-10-16T08:15:23;22.20;99.90
8565;DHT22;4320;51.498;6.556;2022-10-16T08:18:02;22.00;99.90
8565;DHT22;4320;51.498;6.556;2022-10-16T08:20:28;21.60;99.90
8565;DHT22;4320;51.498;6.556;2022-10-16T08:22:55;21.50;99.90
8565;DHT22;4320;51.498;6.556;2022-10-16T08:25:22;21.60;99.90
8565;DHT22;4320;51.498;6.556;2022-10-16T08:27:48;21.60;99.90
8565;DHT22;4320;51.498;6.556;2022-10-16T08:30:14;21.30;99.90
8565;DHT22;4320;51.498;6.556;2022-10-16T08:32:40;20.90;99.90
8565;DHT22;4320;51.498;6.556;2022-10-16T08:35:11;20.50;99.90
8565;DHT22;4320;51.498;6.556;2022-10-16T08:37:38;20.40;99.90
8565;DHT22;4320;51.498;6.556;2022-10-16T08:40:06;20.90;99.90
8565;DHT22;4320;51.498;6.556;2022-10-16T08:50:50;24.50;99.90
8565;DHT22;4320;51.498;6.556;2022-10-16T08:53:28;25.30;93.00
8565;DHT22;4320;51.498;6.556;2022-10-16T08:55:55;26.10;77.90
8565;DHT22;4320;51.498;6.556;2022-10-16T08:58:23;26.10;58.00
8565;DHT22;4320;51.498;6.556;2022-10-16T09:00:56;26.10;49.00
8565;DHT22;4320;51.498;6.556;2022-10-16T09:06:19;24.30;32.80
8565;DHT22;4320;51.498;6.556;2022-10-16T09:14:52;25.70;27.80
8565;DHT22;4320;51.498;6.556;2022-10-16T09:18:11;26.10;16.70
8565;DHT22;4320;51.498;6.556;2022-10-16T09:20:49;25.10;7.90
8565;DHT22;4320;51.498;6.556;2022-10-16T09:23:21;24.20;7.30
8565;DHT22;4320;51.498;6.556;2022-10-16T09:25:49;23.30;13.70
8565;DHT22;4320;51.498;6.556;2022-10-16T09:28:16;22.60;15.00
8565;DHT22;4320;51.498;6.556;2022-10-16T09:30:42;22.30;18.60
8565;DHT22;4320;51.498;6.556;2022-10-16T09:33:10;22.10;24.10
8565;DHT22;4320;51.498;6.556;2022-10-16T09:35:45;21.70;29.50
8565;DHT22;4320;51.498;6.556;2022-10-16T09:38:30;21.70;31.00
8565;DHT22;4320;51.498;6.556;2022-10-16T09:41:16;22.00;34.30
8565;DHT22;4320;51.498;6.556;2022-10-16T09:43:49;21.50;34.00
8565;DHT22;4320;51.498;6.556;2022-10-16T09:46:35;21.10;41.80
8565;DHT22;4320;51.498;6.556;2022-10-16T09:49:18;20.80;50.70
8565;DHT22;4320;51.498;6.556;2022-10-16T09:51:45;20.60;61.00
8565;DHT22;4320;51.498;6.556;2022-10-16T09:54:17;20.60;66.60
8565;DHT22;4320;51.498;6.556;2022-10-16T09:56:42;20.50;72.10
8565;DHT22;4320;51.498;6.556;2022-10-16T09:59:12;20.20;74.90
8565;DHT22;4320;51.498;6.556;2022-10-16T10:01:44;20.00;80.20
8565;DHT22;4320;51.498;6.556;2022-10-16T10:04:10;19.90;83.30
8565;DHT22;4320;51.498;6.556;2022-10-16T10:06:44;19.70;86.50
8565;DHT22;4320;51.498;6.556;2022-10-16T10:09:29;19.60;92.60
8565;DHT22;4320;51.498;6.556;2022-10-16T10:12:01;19.40;93.50
8565;DHT22;4320;51.498;6.556;2022-10-16T10:14:32;19.30;96.20
8565;DHT22;4320;51.498;6.556;2022-10-16T10:20:21;19.30;99.90
8565;DHT22;4320;51.498;6.556;2022-10-16T10:22:42;19.30;99.10
8565;DHT22;4320;51.498;6.556;2022-10-16T10:36:32;19.10;99.90
8565;DHT22;4320;51.498;6.556;2022-10-16T10:46:57;18.80;99.90
8565;DHT22;4320;51.498;6.556;2022-10-16T10:49:36;18.80;99.90
8565;DHT22;4320;51.498;6.556;2022-10-16T11:00:27;19.00;99.90
8565;DHT22;4320;51.498;6.556;2022-10-16T11:05:58;19.30;99.90
8565;DHT22;4320;51.498;6.556;2022-10-16T11:08:34;19.40;99.90
8565;DHT22;4320;51.498;6.556;2022-10-16T11:11:14;19.40;99.90
8565;DHT22;4320;51.498;6.556;2022-10-16T11:16:37;19.70;99.90
8565;DHT22;4320;51.498;6.556;2022-10-16T11:19:34;19.80;99.90
8565;DHT22;4320;51.498;6.556;2022-10-16T11:30:30;19.50;97.30
8565;DHT22;4320;51.498;6.556;2022-10-16T11:33:10;19.50;96.70
8565;DHT22;4320;51.498;6.556;2022-10-16T11:41:04;19.50;94.00
8565;DHT22;4320;51.498;6.556;2022-10-16T11:43:49;19.20;93.60
8565;DHT22;4320;51.498;6.556;2022-10-16T11:46:21;19.10;95.50
8565;DHT22;4320;51.498;6.556;2022-10-16T11:49:13;19.20;94.30
8565;DHT22;4320;51.498;6.556;2022-10-16T11:51:51;19.20;96.80
8565;DHT22;4320;51.498;6.556;2022-10-16T11:54:37;19.30;97.60
8565;DHT22;4320;51.498;6.556;2022-10-16T11:57:22;19.30;98.90
8565;DHT22;4320;51.498;6.556;2022-10-16T12:00:01;19.40;96.50
8565;DHT22;4320;51.498;6.556;2022-10-16T12:02:45;19.50;96.40
8565;DHT22;4320;51.498;6.556;2022-10-16T12:05:24;19.60;96.40
8565;DHT22;4320;51.498;6.556;2022-10-16T12:08:13;19.50;93.90
8565;DHT22;4320;51.498;6.556;2022-10-16T12:10:42;19.20;94.30
8565;DHT22;4320;51.498;6.556;2022-10-16T12:18:44;19.30;94.80
8565;DHT22;4320;51.498;6.556;2022-10-16T12:21:12;19.30;95.90
8565;DHT22;4320;51.498;6.556;2022-10-16T12:23:52;19.30;95.20
8565;DHT22;4320;51.498;6.556;2022-10-16T12:26:38;19.20;96.00
8565;DHT22;4320;51.498;6.556;2022-10-16T12:29:40;19.20;95.30
8565;DHT22;4320;51.498;6.556;2022-10-16T12:32:31;19.20;96.70
8565;DHT22;4320;51.498;6.556;2022-10-16T12:34:58;19.10;97.20
8565;DHT22;4320;51.498;6.556;2022-10-16T12:37:32;19.00;99.90
8565;DHT22;4320;51.498;6.556;2022-10-16T12:39:59;19.00;99.90
8565;DHT22;4320;51.498;6.556;2022-10-16T12:42:36;19.10;99.90
8565;DHT22;4320;51.498;6.556;2022-10-16T12:45:26;19.20;99.90
8565;DHT22;4320;51.498;6.556;2022-10-16T12:47:54;19.30;99.90
8565;DHT22;4320;51.498;6.556;2022-10-16T12:50:37;19.30;98.10
8565;DHT22;4320;51.498;6.556;2022-10-16T12:53:20;19.30;97.90
8565;DHT22;4320;51.498;6.556;2022-10-16T12:58:43;19.20;97.40
8565;DHT22;4320;51.498;6.556;2022-10-16T13:21:10;19.60;93.50
8565;DHT22;4320;51.498;6.556;2022-10-16T13:26:52;19.60;92.10
8565;DHT22;4320;51.498;6.556;2022-10-16T13:29:22;19.40;91.70
8565;DHT22;4320;51.498;6.556;2022-10-16T13:31:48;19.40;92.60
8565;DHT22;4320;51.498;6.556;2022-10-16T13:34:21;19.30;92.30
8565;DHT22;4320;51.498;6.556;2022-10-16T13:36:52;19.30;92.60
8565;DHT22;4320;51.498;6.556;2022-10-16T13:39:30;19.40;92.40
8565;DHT22;4320;51.498;6.556;2022-10-16T13:42:26;19.50;92.90
8565;DHT22;4320;51.498;6.556;2022-10-16T13:44:54;19.50;94.00
8565;DHT22;4320;51.498;6.556;2022-10-16T13:47:25;19.60;92.50
8565;DHT22;4320;51.498;6.556;2022-10-16T13:50:11;19.60;92.00
8565;DHT22;4320;51.498;6.556;2022-10-16T13:52:37;19.60;90.30
8565;DHT22;4320;51.498;6.556;2022-10-16T13:55:09;19.80;91.00
8565;DHT22;4320;51.498;6.556;2022-10-16T13:57:35;19.90;90.50
8565;DHT22;4320;51.498;6.556;2022-10-16T14:00:01;19.90;90.40
8565;DHT22;4320;51.498;6.556;2022-10-16T14:02:36;20.00;90.50
8565;DHT22;4320;51.498;6.556;2022-10-16T14:05:04;20.00;89.80
8565;DHT22;4320;51.498;6.556;2022-10-16T14:07:34;19.90;88.70
8565;DHT22;4320;51.498;6.556;2022-10-16T14:10:06;19.90;88.60
8565;DHT22;4320;51.498;6.556;2022-10-16T14:12:32;19.80;83.00
8565;DHT22;4320;51.498;6.556;2022-10-16T14:14:59;19.70;81.20
8565;DHT22;4320;51.498;6.556;2022-10-16T14:17:34;19.60;80.50
8565;DHT22;4320;51.498;6.556;2022-10-16T14:20:03;19.60;79.50
8565;DHT22;4320;51.498;6.556;2022-10-16T14:22:33;19.60;77.60
8565;DHT22;4320;51.498;6.556;2022-10-16T14:25:00;19.60;78.00
8565;DHT22;4320;51.498;6.556;2022-10-16T14:30:16;19.70;80.20
8565;DHT22;4320;51.498;6.556;2022-10-16T14:33:02;19.80;77.90
8565;DHT22;4320;51.498;6.556;2022-10-16T14:35:39;19.80;76.50
8565;DHT22;4320;51.498;6.556;2022-10-16T14:38:06;19.80;76.50
8565;DHT22;4320;51.498;6.556;2022-10-16T14:40:47;19.80;75.80
8565;DHT22;4320;51.498;6.556;2022-10-16T14:43:22;19.80;77.00
8565;DHT22;4320;51.498;6.556;2022-10-16T14:45:56;19.80;77.00
8565;DHT22;4320;51.498;6.556;2022-10-16T14:48:22;19.80;77.20
8565;DHT22;4320;51.498;6.556;2022-10-16T14:50:48;19.70;75.30
8565;DHT22;4320;51.498;6.556;2022-10-16T14:53:14;19.70;76.90
8565;DHT22;4320;51.498;6.556;2022-10-16T14:55:41;19.70;77.70
8565;DHT22;4320;51.498;6.556;2022-10-16T14:58:18;19.60;77.80
8565;DHT22;4320;51.498;6.556;2022-10-16T15:00:45;19.70;75.80
8565;DHT22;4320;51.498;6.556;2022-10-16T15:03:11;19.70;74.20
8565;DHT22;4320;51.498;6.556;2022-10-16T15:05:36;19.50;74.70
8565;DHT22;4320;51.498;6.556;2022-10-16T15:08:02;19.50;77.40
8565;DHT22;4320;51.498;6.556;2022-10-16T15:10:30;19.40;77.20
8565;DHT22;4320;51.498;6.556;2022-10-16T15:12:57;19.40;77.20
8565;DHT22;4320;51.498;6.556;2022-10-16T15:17:57;19.30;81.30
8565;DHT22;4320;51.498;6.556;2022-10-16T15:20:34;19.30;81.60
8565;DHT22;4320;51.498;6.556;2022-10-16T15:23:20;19.40;80.80
8565;DHT22;4320;51.498;6.556;2022-10-16T15:25:54;19.40;82.70
8565;DHT22;4320;51.498;6.556;2022-10-16T15:28:21;19.40;82.70
8565;DHT22;4320;51.498;6.556;2022-10-16T15:30:50;19.40;84.30
8565;DHT22;4320;51.498;6.556;2022-10-16T15:33:18;19.30;83.70
8565;DHT22;4320;51.498;6.556;2022-10-16T15:35:51;19.30;83.90
8565;DHT22;4320;51.498;6.556;2022-10-16T15:38:18;19.30;84.20
8565;DHT22;4320;51.498;6.556;2022-10-16T15:40:45;19.20;86.10
8565;DHT22;4320;51.498;6.556;2022-10-16T15:43:10;19.20;89.00
8565;DHT22;4320;51.498;6.556;2022-10-16T15:45:37;19.20;89.80
8565;DHT22;4320;51.498;6.556;2022-10-16T15:48:03;19.20;90.20
8565;DHT22;4320;51.498;6.556;2022-10-16T15:50:30;19.10;90.60
8565;DHT22;4320;51.498;6.556;2022-10-16T15:52:56;19.00;92.10
8565;DHT22;4320;51.498;6.556;2022-10-16T15:55:22;19.00;93.40
8565;DHT22;4320;51.498;6.556;2022-10-16T15:57:48;19.00;94.40
8565;DHT22;4320;51.498;6.556;2022-10-16T16:00:16;19.00;94.70
8565;DHT22;4320;51.498;6.556;2022-10-16T16:02:43;18.90;97.70
8565;DHT22;4320;51.498;6.556;2022-10-16T16:05:10;18.90;99.90
8565;DHT22;4320;51.498;6.556;2022-10-16T16:07:37;18.90;99.90
8565;DHT22;4320;51.498;6.556;2022-10-16T16:10:05;18.90;99.90
8565;DHT22;4320;51.498;6.556;2022-10-16T16:12:32;18.80;99.90
8565;DHT22;4320;51.498;6.556;2022-10-16T16:14:57;18.80;99.90
8565;DHT22;4320;51.498;6.556;2022-10-16T16:17:23;18.70;99.90
8565;DHT22;4320;51.498;6.556;2022-10-16T16:19:49;18.70;99.90
8565;DHT22;4320;51.498;6.556;2022-10-16T16:22:15;18.60;99.90
8565;DHT22;4320;51.498;6.556;2022-10-16T16:24:41;18.50;99.90
8565;DHT22;4320;51.498;6.556;2022-10-16T16:27:06;18.50;99.90
8565;DHT22;4320;51.498;6.556;2022-10-16T16:29:32;18.50;99.90
8565;DHT22;4320;51.498;6.556;2022-10-16T16:31:59;18.50;99.90
8565;DHT22;4320;51.498;6.556;2022-10-16T16:34:26;18.40;99.90
8565;DHT22;4320;51.498;6.556;2022-10-16T16:36:53;18.40;99.90
8565;DHT22;4320;51.498;6.556;2022-10-16T16:39:19;18.40;99.90
8565;DHT22;4320;51.498;6.556;2022-10-16T16:41:44;18.30;99.90
8565;DHT22;4320;51.498;6.556;2022-10-16T16:44:14;18.20;99.90
8565;DHT22;4320;51.498;6.556;2022-10-16T16:46:40;18.20;99.90
8565;DHT22;4320;51.498;6.556;2022-10-16T16:49:09;18.10;99.90
8565;DHT22;4320;51.498;6.556;2022-10-16T16:51:36;18.10;99.90
8565;DHT22;4320;51.498;6.556;2022-10-16T16:54:02;18.10;99.90
8565;DHT22;4320;51.498;6.556;2022-10-16T16:56:27;18.00;99.90
8565;DHT22;4320;51.498;6.556;2022-10-16T16:58:55;18.10;99.90
8565;DHT22;4320;51.498;6.556;2022-10-16T17:01:23;18.00;99.90
8565;DHT22;4320;51.498;6.556;2022-10-16T17:03:51;18.10;99.90
8565;DHT22;4320;51.498;6.556;2022-10-16T17:06:18;18.00;99.90
8565;DHT22;4320;51.498;6.556;2022-10-16T17:08:44;18.00;99.90
8565;DHT22;4320;51.498;6.556;2022-10-16T17:11:15;17.90;99.90
8565;DHT22;4320;51.498;6.556;2022-10-16T17:13:41;17.90;99.90
8565;DHT22;4320;51.498;6.556;2022-10-16T17:16:07;17.90;99.90
8565;DHT22;4320;51.498;6.556;2022-10-16T17:18:33;17.90;99.90
8565;DHT22;4320;51.498;6.556;2022-10-16T17:21:00;17.80;99.90
8565;DHT22;4320;51.498;6.556;2022-10-16T17:23:26;17.80;99.90
8565;DHT22;4320;51.498;6.556;2022-10-16T17:25:52;17.80;99.90
8565;DHT22;4320;51.498;6.556;2022-10-16T17:28:18;17.80;99.90
8565;DHT22;4320;51.498;6.556;2022-10-16T17:30:44;17.80;99.90
8565;DHT22;4320;51.498;6.556;2022-10-16T17:33:11;17.80;99.90
8565;DHT22;4320;51.498;6.556;2022-10-16T17:35:46;17.80;99.90
8565;DHT22;4320;51.498;6.556;2022-10-16T17:38:13;17.80;99.90
8565;DHT22;4320;51.498;6.556;2022-10-16T17:40:40;17.90;99.90
8565;DHT22;4320;51.498;6.556;2022-10-16T17:43:06;17.80;99.90
8565;DHT22;4320;51.498;6.556;2022-10-16T17:45:36;17.90;99.90
8565;DHT22;4320;51.498;6.556;2022-10-16T17:48:01;17.90;99.90
8565;DHT22;4320;51.498;6.556;2022-10-16T17:50:27;17.80;99.90
8565;DHT22;4320;51.498;6.556;2022-10-16T17:52:53;17.80;99.90
8565;DHT22;4320;51.498;6.556;2022-10-16T17:55:19;17.70;99.90
8565;DHT22;4320;51.498;6.556;2022-10-16T17:57:44;17.70;99.90
8565;DHT22;4320;51.498;6.556;2022-10-16T18:00:10;17.80;99.90
8565;DHT22;4320;51.498;6.556;2022-10-16T18:02:36;17.80;99.90
8565;DHT22;4320;51.498;6.556;2022-10-16T18:05:02;17.80;99.90
8565;DHT22;4320;51.498;6.556;2022-10-16T18:07:30;17.80;99.90
8565;DHT22;4320;51.498;6.556;2022-10-16T18:09:56;17.70;99.90
8565;DHT22;4320;51.498;6.556;2022-10-16T18:12:22;17.70;99.90
8565;DHT22;4320;51.498;6.556;2022-10-16T18:14:47;17.80;99.90
8565;DHT22;4320;51.498;6.556;2022-10-16T18:17:13;17.70;99.90